createdAt,value
2022-12-03T00:00:30.834Z,86.70
2022-12-03T00:02:57.433Z,86.73
2022-12-03T00:05:23.946Z,87.24
2022-12-03T00:07:50.490Z,86.87
2022-12-03T00:10:17.185Z,87.33
2022-12-03T00:12:43.638Z,86.91
2022-12-03T00:15:11.034Z,87.14
2022-12-03T00:17:37.843Z,87.93
2022-12-03T00:20:06.274Z,88.12
2022-12-03T00:22:32.756Z,87.39
2022-12-03T00:24:59.281Z,88.36
2022-12-03T00:27:25.799Z,87.69
2022-12-03T00:29:52.216Z,87.68
2022-12-03T00:32:18.624Z,87.68
2022-12-03T00:34:47.167Z,88.39
2022-12-03T00:37:13.689Z,88.17
2022-12-03T00:39:40.149Z,88.66
2022-12-03T00:42:06.592Z,88.16
2022-12-03T00:44:33.101Z,88.07
2022-12-03T00:46:59.667Z,88.76
2022-12-03T00:49:26.150Z,88.64
2022-12-03T00:51:52.653Z,88.39
2022-12-03T00:54:19.157Z,88.18
2022-12-03T00:56:45.588Z,88.75
2022-12-03T00:59:12.129Z,88.38
2022-12-03T01:01:38.682Z,89.20
2022-12-03T01:04:05.359Z,89.63
2022-12-03T01:06:31.823Z,88.66
2022-12-03T01:08:58.348Z,88.79
2022-12-03T01:11:41.247Z,89.18
2022-12-03T01:14:19.025Z,88.97
2022-12-03T01:16:46.260Z,89.34
2022-12-03T01:19:16.810Z,89.49
2022-12-03T01:21:45.509Z,89.30
2022-12-03T01:24:12.503Z,89.05
2022-12-03T01:26:38.990Z,89.16
2022-12-03T01:29:06.101Z,89.72
2022-12-03T01:31:51.228Z,89.44
2022-12-03T01:34:17.682Z,90.11
2022-12-03T01:36:44.212Z,89.52
2022-12-03T01:39:10.800Z,89.79
2022-12-03T01:41:38.130Z,89.66
2022-12-03T01:44:12.585Z,89.81
2022-12-03T01:46:40.852Z,89.60
2022-12-03T01:49:13.917Z,89.97
2022-12-03T01:51:40.376Z,90.15
2022-12-03T01:54:16.774Z,89.92
2022-12-03T01:56:43.604Z,89.70
2022-12-03T01:59:15.690Z,90.39
2022-12-03T02:01:42.454Z,90.03
2022-12-03T02:04:13.202Z,90.41
2022-12-03T02:06:40.376Z,90.15
2022-12-03T02:09:08.598Z,90.35
2022-12-03T02:11:39.079Z,89.71
2022-12-03T02:14:10.389Z,90.06
2022-12-03T02:16:38.058Z,90.37
2022-12-03T02:19:09.873Z,90.06
2022-12-03T02:21:41.444Z,90.13
2022-12-03T02:24:19.971Z,90.53
2022-12-03T02:26:46.540Z,89.97
2022-12-03T02:29:13.175Z,90.21
2022-12-03T02:31:39.690Z,90.21
2022-12-03T02:34:09.079Z,90.50
2022-12-03T02:36:37.353Z,90.55
2022-12-03T02:39:05.248Z,90.32
2022-12-03T02:41:50.656Z,90.09
2022-12-03T02:44:17.182Z,90.63
2022-12-03T02:46:43.810Z,89.96
2022-12-03T02:49:10.328Z,90.77
2022-12-03T02:51:36.772Z,90.52
2022-12-03T02:54:04.062Z,89.86
2022-12-03T02:56:32.445Z,90.72
2022-12-03T02:59:03.645Z,90.43
2022-12-03T03:01:30.405Z,90.56
2022-12-03T03:03:57.953Z,90.39
2022-12-03T03:06:24.786Z,90.57
2022-12-03T03:08:51.896Z,90.54
2022-12-03T03:11:18.550Z,90.01
2022-12-03T03:13:45.207Z,90.93
2022-12-03T03:16:12.286Z,90.68
2022-12-03T03:18:38.991Z,90.43
2022-12-03T03:21:06.452Z,90.66
2022-12-03T03:23:33.376Z,90.43
2022-12-03T03:26:04.697Z,90.67
2022-12-03T03:28:32.333Z,90.80
2022-12-03T03:31:02.164Z,90.54
2022-12-03T03:33:28.987Z,90.69
2022-12-03T03:35:55.816Z,89.88
2022-12-03T03:38:24.048Z,89.96
2022-12-03T03:40:51.909Z,90.44
2022-12-03T03:43:21.568Z,90.54
2022-12-03T03:45:48.967Z,90.21
2022-12-03T03:48:15.727Z,90.04
2022-12-03T03:50:43.342Z,90.34
2022-12-03T03:53:12.126Z,89.67
2022-12-03T03:55:39.469Z,89.95
2022-12-03T03:58:06.323Z,90.04
2022-12-03T04:00:32.938Z,89.76
2022-12-03T04:02:59.376Z,89.94
2022-12-03T04:05:26.202Z,90.27
2022-12-03T04:07:52.784Z,90.30
2022-12-03T04:10:37.935Z,89.84
2022-12-03T04:13:05.008Z,89.54
2022-12-03T04:15:31.753Z,89.52
2022-12-03T04:18:16.849Z,89.12
2022-12-03T04:20:43.715Z,89.62
2022-12-03T04:23:10.311Z,89.41
2022-12-03T04:26:08.638Z,90.04
2022-12-03T04:28:50.195Z,89.83
2022-12-03T04:31:35.157Z,89.28
2022-12-03T04:34:19.954Z,88.95
2022-12-03T04:36:47.180Z,89.29
2022-12-03T04:39:13.672Z,89.15
2022-12-03T04:41:40.164Z,89.03
2022-12-03T04:44:24.980Z,89.04
2022-12-03T04:46:51.380Z,89.47
2022-12-03T04:49:17.805Z,88.68
2022-12-03T04:51:44.309Z,89.63
2022-12-03T04:54:10.728Z,89.02
2022-12-03T04:56:37.193Z,89.21
2022-12-03T04:59:04.269Z,88.95
2022-12-03T05:01:30.806Z,89.40
2022-12-03T05:03:57.290Z,89.25
2022-12-03T05:06:23.733Z,89.36
2022-12-03T05:08:50.301Z,88.92
2022-12-03T05:11:16.771Z,88.90
2022-12-03T05:13:43.373Z,89.09
2022-12-03T05:16:10.368Z,89.27
2022-12-03T05:18:36.949Z,89.51
2022-12-03T05:21:03.740Z,89.26
2022-12-03T05:23:30.161Z,88.88
2022-12-03T05:25:56.587Z,89.30
2022-12-03T05:28:24.208Z,89.85
2022-12-03T05:30:51.721Z,89.64
2022-12-03T05:33:18.589Z,89.62
2022-12-03T05:35:44.998Z,89.52
2022-12-03T05:38:11.617Z,89.71
2022-12-03T05:40:38.157Z,90.02
2022-12-03T05:43:04.705Z,90.20
2022-12-03T05:45:36.977Z,90.90
2022-12-03T05:48:05.175Z,90.06
2022-12-03T05:50:34.066Z,90.04
2022-12-03T05:53:00.810Z,90.12
2022-12-03T05:55:27.622Z,89.46
2022-12-03T05:57:54.170Z,89.34
2022-12-03T06:00:26.272Z,89.91
2022-12-03T06:02:52.996Z,90.05
2022-12-03T06:05:20.957Z,89.89
2022-12-03T06:07:48.793Z,89.75
2022-12-03T06:10:19.340Z,89.68
2022-12-03T06:12:46.149Z,89.40
2022-12-03T06:15:15.125Z,89.79
2022-12-03T06:17:41.742Z,89.08
2022-12-03T06:20:11.192Z,89.31
2022-12-03T06:22:37.622Z,89.36
2022-12-03T06:25:07.103Z,89.62
2022-12-03T06:27:34.200Z,89.11
2022-12-03T06:30:00.616Z,89.30
2022-12-03T06:32:29.507Z,89.69
2022-12-03T06:34:56.181Z,89.22
2022-12-03T06:37:22.856Z,88.86
2022-12-03T06:39:49.286Z,89.22
2022-12-03T06:42:15.780Z,89.25
2022-12-03T06:44:42.274Z,89.01
2022-12-03T06:47:08.773Z,89.15
2022-12-03T06:49:35.290Z,89.12
2022-12-03T06:52:01.836Z,88.68
2022-12-03T06:54:28.392Z,89.03
2022-12-03T06:56:54.836Z,88.77
2022-12-03T06:59:21.302Z,88.46
2022-12-03T07:01:47.792Z,88.65
2022-12-03T07:04:14.288Z,88.85
2022-12-03T07:06:40.806Z,88.50
2022-12-03T07:09:07.371Z,88.59
2022-12-03T07:11:39.879Z,88.95
2022-12-03T07:14:08.315Z,88.70
2022-12-03T07:16:35.929Z,88.77
2022-12-03T07:19:03.829Z,88.10
2022-12-03T07:21:30.497Z,88.40
2022-12-03T07:23:56.936Z,87.93
2022-12-03T07:26:23.683Z,87.72
2022-12-03T07:28:50.190Z,88.19
2022-12-03T07:31:16.753Z,87.69
2022-12-03T07:33:43.345Z,87.76
2022-12-03T07:36:10.158Z,88.30
2022-12-03T07:38:36.767Z,87.88
2022-12-03T07:41:03.228Z,88.39
2022-12-03T07:43:29.752Z,88.57
2022-12-03T07:45:56.389Z,88.28
2022-12-03T07:48:22.863Z,88.13
2022-12-03T07:50:49.439Z,88.36
2022-12-03T07:53:16.012Z,88.54
2022-12-03T07:55:42.468Z,88.67
2022-12-03T07:58:09.341Z,88.47
2022-12-03T08:00:35.938Z,88.24
2022-12-03T08:03:02.422Z,88.32
2022-12-03T08:05:29.764Z,88.54
2022-12-03T08:07:56.638Z,89.08
2022-12-03T08:10:25.498Z,89.31
2022-12-03T08:12:53.617Z,88.99
2022-12-03T08:15:25.723Z,89.27
2022-12-03T08:17:55.997Z,89.04
2022-12-03T08:20:24.475Z,89.35
2022-12-03T08:22:53.272Z,88.85
2022-12-03T08:25:24.280Z,88.83
2022-12-03T08:27:53.309Z,89.15
2022-12-03T08:30:20.333Z,89.49
2022-12-03T08:32:47.975Z,89.22
2022-12-03T08:35:24.546Z,89.16
2022-12-03T08:38:01.240Z,89.54
2022-12-03T08:40:46.548Z,89.00
2022-12-03T08:43:25.900Z,89.31
2022-12-03T08:45:54.714Z,89.21
2022-12-03T08:48:27.229Z,88.86
2022-12-03T08:50:56.016Z,89.69
2022-12-03T08:53:30.450Z,89.10
2022-12-03T08:56:03.968Z,89.96
2022-12-03T08:58:40.425Z,89.35
2022-12-03T09:01:12.937Z,89.61
2022-12-03T09:03:47.505Z,89.91
2022-12-03T09:06:14.097Z,89.02
2022-12-03T09:08:40.553Z,89.26
2022-12-03T09:11:07.017Z,89.71
2022-12-03T09:13:33.769Z,89.50
2022-12-03T09:16:00.221Z,89.21
2022-12-03T09:18:26.738Z,89.53
2022-12-03T09:20:53.309Z,88.75
2022-12-03T09:23:19.787Z,89.27
2022-12-03T09:25:46.225Z,89.38
2022-12-03T09:28:12.688Z,89.25
2022-12-03T09:30:39.136Z,88.97
2022-12-03T09:33:05.719Z,88.80
2022-12-03T09:35:32.236Z,89.09
2022-12-03T09:37:58.671Z,89.50
2022-12-03T09:40:25.272Z,89.68
2022-12-03T09:42:52.170Z,88.93
2022-12-03T09:45:18.731Z,89.19
2022-12-03T09:47:48.693Z,89.01
2022-12-03T09:50:19.596Z,88.97
2022-12-03T09:52:46.924Z,88.86
2022-12-03T09:55:23.620Z,88.25
2022-12-03T09:57:52.355Z,87.68
2022-12-03T10:00:25.031Z,87.38
2022-12-03T10:02:54.114Z,86.55
2022-12-03T10:05:22.493Z,86.35
2022-12-03T10:07:50.727Z,86.22
2022-12-03T10:10:22.798Z,85.84
2022-12-03T10:12:50.686Z,86.55
2022-12-03T10:15:19.278Z,86.45
2022-12-03T10:17:47.706Z,86.49
2022-12-03T10:20:16.691Z,87.50
2022-12-03T10:22:43.234Z,87.44
2022-12-03T10:25:12.811Z,88.04
2022-12-03T10:27:40.172Z,87.48
2022-12-03T10:30:19.835Z,87.77
2022-12-03T10:32:51.227Z,87.24
2022-12-03T10:35:23.553Z,87.74
2022-12-03T10:38:03.768Z,87.60
2022-12-03T10:40:33.362Z,87.76
2022-12-03T10:43:20.188Z,88.21
2022-12-03T10:46:09.567Z,88.02
2022-12-03T10:48:36.728Z,88.48
2022-12-03T10:51:04.274Z,89.07
2022-12-03T10:53:32.986Z,88.81
2022-12-03T10:56:01.963Z,88.61
2022-12-03T10:58:40.049Z,88.63
2022-12-03T11:01:15.695Z,87.76
2022-12-03T11:03:42.354Z,87.84
2022-12-03T11:06:14.958Z,87.91
2022-12-03T11:08:44.604Z,87.22
2022-12-03T11:11:20.309Z,87.35
2022-12-03T11:13:50.682Z,86.96
2022-12-03T11:16:38.865Z,87.83
2022-12-03T11:19:38.652Z,87.58
2022-12-03T11:22:05.197Z,87.91
2022-12-03T11:24:34.421Z,87.14
2022-12-03T11:27:08.156Z,87.21
2022-12-03T11:29:58.678Z,87.06
2022-12-03T11:32:45.078Z,87.06
2022-12-03T11:35:14.197Z,87.38
2022-12-03T11:37:40.948Z,87.23
2022-12-03T11:40:16.609Z,86.95
2022-12-03T11:42:44.794Z,86.71
2022-12-03T11:45:16.268Z,87.44
2022-12-03T11:47:46.824Z,86.79
2022-12-03T11:50:23.315Z,86.47
2022-12-03T11:52:55.061Z,86.85
2022-12-03T11:55:35.745Z,86.38
2022-12-03T11:58:04.992Z,85.87
2022-12-03T12:00:32.252Z,86.08
2022-12-03T12:02:58.899Z,85.56
2022-12-03T12:05:25.412Z,86.30
2022-12-03T12:07:52.866Z,85.88
2022-12-03T12:10:39.230Z,86.12
2022-12-03T12:13:06.293Z,86.06
2022-12-03T12:15:38.667Z,85.60
2022-12-03T12:18:40.730Z,85.98
2022-12-03T12:21:44.258Z,85.32
2022-12-03T12:24:46.837Z,85.86
2022-12-03T13:12:36.431Z,86.01
2022-12-03T13:15:02.962Z,85.98
2022-12-03T13:17:29.499Z,86.04
2022-12-03T13:20:07.747Z,85.74
2022-12-03T13:22:34.660Z,85.98
2022-12-03T13:25:43.925Z,85.89
2022-12-03T13:28:07.989Z,86.45
2022-12-03T13:30:34.483Z,86.77
2022-12-03T13:33:13.283Z,86.58
2022-12-03T13:35:42.731Z,87.07
2022-12-03T13:38:15.335Z,86.75
2022-12-03T13:40:42.258Z,87.86
2022-12-03T13:43:16.905Z,87.81
2022-12-03T13:45:49.240Z,88.43
2022-12-03T13:48:23.131Z,88.34
2022-12-03T13:50:50.273Z,88.67
2022-12-03T13:53:25.808Z,88.72
2022-12-03T13:55:57.758Z,89.21
2022-12-03T13:58:24.197Z,89.12
2022-12-03T14:00:51.012Z,89.08
2022-12-03T14:03:17.664Z,89.42
2022-12-03T14:05:44.103Z,89.87
2022-12-03T14:08:10.576Z,89.98
2022-12-03T14:10:37.121Z,89.88
2022-12-03T14:13:03.595Z,90.50
2022-12-03T14:15:30.053Z,90.12
2022-12-03T14:17:56.542Z,90.36
2022-12-03T14:20:22.959Z,90.26
2022-12-03T14:22:49.480Z,90.76
2022-12-03T14:25:16.116Z,90.70
2022-12-03T14:27:42.625Z,90.56
2022-12-03T14:30:09.937Z,90.83
2022-12-03T14:32:36.354Z,90.23
2022-12-03T14:35:08.297Z,90.10
2022-12-03T14:37:38.390Z,90.27
2022-12-03T14:40:08.784Z,89.94
2022-12-03T14:42:36.529Z,89.52
2022-12-03T14:45:03.152Z,89.89
2022-12-03T14:47:29.592Z,89.56
2022-12-03T14:49:56.562Z,89.36
2022-12-03T14:52:23.329Z,88.92
2022-12-03T14:54:49.780Z,89.03
2022-12-03T14:57:16.505Z,88.98
2022-12-03T14:59:44.048Z,88.95
2022-12-03T15:02:11.610Z,88.83
2022-12-03T15:04:39.349Z,88.77
2022-12-03T15:07:06.183Z,88.66
2022-12-03T15:09:32.945Z,88.38
2022-12-03T15:12:00.097Z,88.38
2022-12-03T15:14:26.709Z,88.35
2022-12-03T15:16:53.197Z,87.91
2022-12-03T15:19:19.673Z,87.92
2022-12-03T15:21:48.356Z,88.53
2022-12-03T15:24:14.857Z,88.51
2022-12-03T15:26:41.365Z,88.17
2022-12-03T15:29:07.836Z,88.12
2022-12-03T15:31:34.496Z,87.82
2022-12-03T15:34:01.113Z,88.01
2022-12-03T15:36:27.598Z,88.47
2022-12-03T15:38:54.033Z,88.51
2022-12-03T15:41:21.276Z,88.23
2022-12-03T15:43:52.731Z,88.49
2022-12-03T15:46:22.516Z,88.04
2022-12-03T15:48:49.678Z,87.86
2022-12-03T15:51:16.365Z,88.52
2022-12-03T15:53:42.877Z,88.71
2022-12-03T15:56:09.529Z,89.07
2022-12-03T15:58:36.055Z,88.70
2022-12-03T16:01:02.583Z,88.79
2022-12-03T16:03:29.358Z,89.28
2022-12-03T16:05:56.005Z,88.90
2022-12-03T16:08:22.763Z,89.02
2022-12-03T16:10:49.390Z,89.24
2022-12-03T16:13:15.848Z,89.92
2022-12-03T16:15:42.382Z,89.30
2022-12-03T16:18:09.258Z,90.06
2022-12-03T16:20:35.740Z,89.44
2022-12-03T16:23:02.195Z,89.80
2022-12-03T16:25:28.743Z,89.42
2022-12-03T16:27:56.444Z,89.24
2022-12-03T16:30:24.537Z,89.30
2022-12-03T16:32:51.088Z,89.65
2022-12-03T16:35:17.582Z,89.58
2022-12-03T16:37:44.524Z,89.73
2022-12-03T16:40:11.368Z,89.83
2022-12-03T16:42:37.830Z,89.07
2022-12-03T16:45:04.609Z,89.16
2022-12-03T16:47:34.173Z,89.33
2022-12-03T16:50:07.551Z,89.56
2022-12-03T16:52:34.735Z,89.45
2022-12-03T16:55:01.452Z,89.50
2022-12-03T16:57:33.421Z,89.05
2022-12-03T17:00:00.397Z,89.12
2022-12-03T17:02:27.684Z,89.53
2022-12-03T17:04:54.663Z,89.63
2022-12-03T17:07:21.274Z,89.80
2022-12-03T17:09:47.820Z,89.13
2022-12-03T17:12:14.263Z,89.77
2022-12-03T17:14:40.721Z,89.57
2022-12-03T17:17:07.174Z,89.52
2022-12-03T17:19:33.642Z,89.53
2022-12-03T17:22:00.095Z,89.87
2022-12-03T17:24:26.587Z,90.02
2022-12-03T17:26:53.044Z,89.53
2022-12-03T17:29:19.541Z,89.79
2022-12-03T17:31:46.109Z,89.67
2022-12-03T17:34:12.617Z,89.97
2022-12-03T17:36:39.054Z,89.73
2022-12-03T17:39:05.509Z,90.28
2022-12-03T17:41:31.964Z,90.09
2022-12-03T17:43:58.438Z,89.72
2022-12-03T17:46:25.004Z,89.67
2022-12-03T17:48:51.519Z,89.63
2022-12-03T17:51:20.778Z,89.62
2022-12-03T17:53:47.280Z,90.02
2022-12-03T17:56:13.796Z,90.42
2022-12-03T17:58:40.264Z,89.84
2022-12-03T18:01:08.561Z,90.48
2022-12-03T18:03:35.088Z,90.51
2022-12-03T18:06:02.050Z,90.71
2022-12-03T18:08:28.780Z,90.16
2022-12-03T18:10:55.317Z,90.04
2022-12-03T18:13:22.109Z,89.79
2022-12-03T18:15:48.733Z,90.21
2022-12-03T18:18:15.209Z,90.27
2022-12-03T18:20:41.763Z,90.20
2022-12-03T18:23:08.222Z,89.81
2022-12-03T18:25:34.741Z,90.09
2022-12-03T18:28:01.168Z,89.90
2022-12-03T18:30:27.616Z,89.82
2022-12-03T18:32:54.433Z,89.99
2022-12-03T18:35:21.113Z,89.82
2022-12-03T18:37:49.499Z,89.72
2022-12-03T18:40:23.368Z,89.90
2022-12-03T18:42:50.170Z,89.79
2022-12-03T18:45:16.913Z,89.72
2022-12-03T18:47:43.919Z,89.79
2022-12-03T18:50:11.647Z,89.76
2022-12-03T18:52:38.568Z,90.14
2022-12-03T18:55:06.266Z,89.91
2022-12-03T18:57:32.682Z,89.76
2022-12-03T18:59:59.283Z,89.26
2022-12-03T19:02:54.148Z,89.32
2022-12-03T19:05:12.360Z,89.88
2022-12-03T19:07:38.972Z,89.78
2022-12-03T19:10:06.080Z,89.62
2022-12-03T19:12:33.126Z,89.66
2022-12-03T19:14:59.590Z,89.43
2022-12-03T19:17:27.217Z,89.83
2022-12-03T19:19:54.382Z,89.58
2022-12-03T19:22:21.266Z,89.21
2022-12-03T19:24:47.785Z,89.47
2022-12-03T19:27:14.599Z,89.46
2022-12-03T19:29:41.346Z,89.40
2022-12-03T19:32:08.941Z,89.77
2022-12-03T19:34:35.797Z,89.43
2022-12-03T19:37:02.274Z,89.40
2022-12-03T19:39:28.755Z,89.49
2022-12-03T19:41:55.266Z,89.50
2022-12-03T19:44:21.855Z,89.29
2022-12-03T19:46:51.173Z,88.86
2022-12-03T19:49:20.865Z,88.85
2022-12-03T19:51:47.616Z,88.57
2022-12-03T19:54:14.551Z,88.70
2022-12-03T19:56:41.028Z,88.98
2022-12-03T19:59:07.897Z,88.87
2022-12-03T20:01:35.757Z,88.54
2022-12-03T20:04:03.622Z,88.66
2022-12-03T20:06:35.371Z,88.57
2022-12-03T20:09:08.054Z,88.54
2022-12-03T20:11:35.449Z,88.11
2022-12-03T20:14:08.124Z,88.35
2022-12-03T20:16:35.546Z,88.56
2022-12-03T20:19:05.233Z,88.37
2022-12-03T20:21:33.405Z,88.67
2022-12-03T20:24:00.120Z,88.06
2022-12-03T20:26:27.014Z,87.95
2022-12-03T20:28:55.041Z,88.14
2022-12-03T20:31:26.894Z,88.07
2022-12-03T20:33:56.619Z,88.13
2022-12-03T20:36:23.957Z,88.02
2022-12-03T20:38:58.903Z,87.88
2022-12-03T20:41:25.595Z,87.81
2022-12-03T20:43:53.551Z,88.26
2022-12-03T20:46:21.974Z,88.30
2022-12-03T20:48:48.900Z,87.55
2022-12-03T20:51:18.266Z,88.18
2022-12-03T20:53:44.904Z,87.72
2022-12-03T20:56:18.553Z,88.23
2022-12-03T20:58:44.981Z,87.70
2022-12-03T21:01:15.872Z,88.04
2022-12-03T21:03:43.073Z,87.61
2022-12-03T21:06:10.315Z,88.35
2022-12-03T21:08:41.559Z,88.02
2022-12-03T21:11:14.922Z,87.86
2022-12-03T21:13:43.538Z,88.14
2022-12-03T21:16:13.458Z,87.49
2022-12-03T21:18:40.352Z,87.84
2022-12-03T21:21:08.559Z,87.82
2022-12-03T21:23:35.411Z,87.94
2022-12-03T21:26:26.829Z,88.00
2022-12-03T21:28:54.186Z,88.39
2022-12-03T21:31:25.157Z,88.15
2022-12-03T21:33:55.932Z,87.84
2022-12-03T21:36:23.370Z,87.69
2022-12-03T21:38:49.876Z,88.22
2022-12-03T21:41:17.193Z,88.01
2022-12-03T21:43:44.536Z,87.85
2022-12-03T21:47:11.455Z,88.17
2022-12-03T21:49:01.543Z,88.22
2022-12-03T21:51:28.072Z,88.46
2022-12-03T21:53:54.536Z,88.14
2022-12-03T21:56:21.026Z,87.82
2022-12-03T21:58:47.607Z,87.75
2022-12-03T22:01:18.487Z,88.27
2022-12-03T22:03:45.669Z,88.32
2022-12-03T22:06:12.539Z,88.34
2022-12-03T22:08:39.651Z,88.08
2022-12-03T22:11:12.293Z,88.46
2022-12-03T22:13:40.229Z,88.15
2022-12-03T22:16:12.209Z,88.00
2022-12-03T22:18:39.247Z,88.86
2022-12-03T22:21:07.545Z,88.05
2022-12-03T22:23:34.343Z,88.49
2022-12-03T22:26:03.070Z,87.97
2022-12-03T22:28:29.615Z,88.28
2022-12-03T22:30:56.654Z,88.13
2022-12-03T22:33:23.348Z,88.46
2022-12-03T22:36:01.063Z,88.01
2022-12-03T22:38:29.928Z,88.61
2022-12-03T22:40:56.934Z,87.99
2022-12-03T22:43:24.466Z,88.49
2022-12-03T22:45:55.257Z,88.30
2022-12-03T22:48:22.795Z,88.19
2022-12-03T22:50:51.091Z,88.92
2022-12-03T22:53:18.138Z,88.56
2022-12-03T22:55:44.604Z,88.61
2022-12-03T22:58:11.742Z,88.82
2022-12-03T23:00:40.712Z,88.77
2022-12-03T23:03:07.923Z,89.03
2022-12-03T23:05:38.515Z,88.69
2022-12-03T23:08:10.380Z,88.85
2022-12-03T23:10:40.276Z,88.88
2022-12-03T23:13:07.460Z,88.51
2022-12-03T23:15:34.133Z,88.75
2022-12-03T23:18:00.693Z,88.84
2022-12-03T23:20:27.700Z,89.14
2022-12-03T23:22:54.868Z,89.33
2022-12-03T23:25:22.137Z,88.68
2022-12-03T23:27:48.812Z,88.54
2022-12-03T23:30:16.738Z,88.71
2022-12-03T23:32:44.425Z,88.36
2022-12-03T23:35:12.371Z,88.25
2022-12-03T23:37:38.960Z,88.51
2022-12-03T23:40:06.237Z,88.40
2022-12-03T23:42:32.653Z,89.10
2022-12-03T23:44:59.167Z,88.85
2022-12-03T23:47:25.623Z,88.54
2022-12-03T23:49:52.276Z,88.41
2022-12-03T23:52:18.928Z,89.15
2022-12-03T23:54:45.626Z,88.71
2022-12-03T23:57:12.716Z,88.82
2022-12-03T23:59:39.693Z,89.09
